Time;durP1;ratioP1;P1;durP2;ratioP2;P2;SDS_P1;SDS_P2;PMS_P1;PMS_P2;Temp;Humidity;BMP_temperature;BMP_pressure;BME280_temperature;BME280_humidity;BME280_pressure;Samples;Min_cycle;Max_cycle;Signal;HPM_P1;HPM_P2
2022/07/24 00:00:50;;;;;;;74.65;70.97;;;;;;;29.55;33.39;101765.88;4881672;29;20074;-63
2022/07/24 00:03:15;;;;;;;70.85;67.25;;;;;;;29.52;33.32;101769.34;4888016;29;20045;-63
2022/07/24 00:05:41;;;;;;;70.97;67.55;;;;;;;29.50;33.50;101774.44;4890163;29;20041;-65
2022/07/24 00:08:06;;;;;;;68.43;65.15;;;;;;;29.47;33.34;101770.38;4879328;29;20128;-64
2022/07/24 00:10:32;;;;;;;71.47;68.03;;;;;;;29.45;33.54;101780.25;4887735;29;20044;-63
2022/07/24 00:12:57;;;;;;;69.80;66.40;;;;;;;29.41;33.35;101774.56;4894272;29;20100;-64
2022/07/24 00:15:23;;;;;;;73.35;69.88;;;;;;;29.39;33.40;101771.31;4890278;29;20041;-64
2022/07/24 00:17:48;;;;;;;71.05;67.53;;;;;;;29.37;33.52;101770.03;4879454;29;20074;-64
2022/07/24 00:20:14;;;;;;;73.22;69.55;;;;;;;29.33;33.53;101765.16;4881349;29;20036;-64
2022/07/24 00:22:39;;;;;;;68.53;65.20;;;;;;;29.31;33.56;101761.09;4879441;29;20589;-64
2022/07/24 00:25:05;;;;;;;69.90;66.57;;;;;;;29.28;33.39;101757.03;4885023;29;20060;-64
2022/07/24 00:27:30;;;;;;;69.68;66.22;;;;;;;29.26;33.39;101766.91;4893188;29;20037;-64
2022/07/24 00:29:56;;;;;;;71.15;67.55;;;;;;;29.23;33.74;101759.22;4896087;29;20120;-65
2022/07/24 00:32:21;;;;;;;69.43;66.03;;;;;;;29.20;33.32;101769.06;4891116;29;20197;-64
2022/07/24 00:34:46;;;;;;;67.63;64.32;;;;;;;29.18;33.76;101765.84;4879143;29;20465;-64
2022/07/24 00:37:12;;;;;;;68.47;65.00;;;;;;;29.15;33.37;101765.69;4892992;29;20033;-64
2022/07/24 00:39:37;;;;;;;68.80;65.35;;;;;;;29.14;33.45;101770.47;4878766;29;20045;-64
2022/07/24 00:42:03;;;;;;;71.38;67.80;;;;;;;29.10;33.37;101767.53;4882277;29;20122;-67
2022/07/24 00:44:28;;;;;;;69.28;65.88;;;;;;;29.09;33.41;101765.13;4878040;29;20045;-64
2022/07/24 00:46:54;;;;;;;70.07;66.35;;;;;;;29.05;33.31;101755.78;4892524;29;20036;-65
2022/07/24 00:49:20;;;;;;;70.50;67.00;;;;;;;29.02;33.40;101760.06;4878223;29;20033;-65
2022/07/24 00:51:48;;;;;;;68.40;65.10;;;;;;;28.99;33.53;101763.56;4884738;29;20044;-64
2022/07/24 00:54:15;;;;;;;70.03;66.53;;;;;;;28.98;33.81;101755.53;4895600;29;20099;-63
2022/07/24 00:56:42;;;;;;;66.85;63.55;;;;;;;28.94;33.50;101758.22;4889878;29;20041;-63
2022/07/24 00:59:07;;;;;;;67.22;63.92;;;;;;;28.92;33.51;101754.97;4885191;29;20041;-64
2022/07/24 01:01:33;;;;;;;69.80;66.40;;;;;;;28.90;33.69;101755.31;4888881;29;20052;-63
2022/07/24 01:03:58;;;;;;;68.03;64.82;;;;;;;28.87;33.60;101758.75;4878530;29;20484;-64
2022/07/24 01:06:24;;;;;;;65.57;62.17;;;;;;;28.85;33.47;101754.69;4881880;29;20469;-63
2022/07/24 01:08:50;;;;;;;68.97;65.57;;;;;;;28.82;33.57;101758.97;4880553;29;20045;-63
2022/07/24 01:11:16;;;;;;;66.82;63.53;;;;;;;28.79;33.43;101756.09;4886423;29;20115;-64
2022/07/24 01:13:42;;;;;;;66.80;63.55;;;;;;;28.77;33.81;101758.38;4880713;29;20133;-66
2022/07/24 01:16:08;;;;;;;67.05;63.75;;;;;;;28.73;33.96;101749.94;4899403;29;20100;-68
2022/07/24 01:18:34;;;;;;;67.55;64.15;;;;;;;28.72;33.55;101751.06;4882471;29;20389;-64
2022/07/24 01:21:00;;;;;;;68.45;65.05;;;;;;;28.69;33.68;101748.97;4880499;29;20054;-64
2022/07/24 01:23:25;;;;;;;66.47;63.17;;;;;;;28.67;33.74;101756.84;4886491;29;20045;-64
2022/07/24 01:25:51;;;;;;;64.75;61.45;;;;;;;28.63;33.85;101745.59;4877808;29;20033;-64
2022/07/24 01:28:17;;;;;;;67.43;63.92;;;;;;;28.61;34.02;101752.66;4882878;29;20033;-64
2022/07/24 01:30:43;;;;;;;64.25;61.03;;;;;;;28.58;33.83;101739.44;4888625;29;20033;-65
2022/07/24 01:33:09;;;;;;;66.13;63.03;;;;;;;28.55;33.73;101740.94;4895885;29;20039;-67
2022/07/24 01:35:34;;;;;;;66.90;63.63;;;;;;;28.54;33.82;101749.63;4878065;29;20041;-64
2022/07/24 01:37:59;;;;;;;68.47;65.18;;;;;;;28.51;33.83;101751.13;4888156;29;20053;-64
2022/07/24 01:40:25;;;;;;;67.03;63.72;;;;;;;28.49;33.49;101745.06;4890891;29;20056;-64
2022/07/24 01:42:51;;;;;;;64.18;60.88;;;;;;;28.45;33.84;101744.97;4877152;29;20060;-64
2022/07/24 01:45:17;;;;;;;67.93;64.53;;;;;;;28.43;34.00;101741.66;4885297;29;20033;-64
2022/07/24 01:47:43;;;;;;;65.05;61.85;;;;;;;28.41;33.92;101746.75;4880820;29;20062;-64
2022/07/24 01:50:10;;;;;;;68.93;65.57;;;;;;;28.39;33.76;101745.47;4877870;29;20041;-64
2022/07/24 01:52:36;;;;;;;65.57;62.08;;;;;;;28.35;33.97;101738.94;4878075;29;20081;-68
2022/07/24 01:55:02;;;;;;;65.25;61.95;;;;;;;28.32;33.95;101734.88;4895761;29;20115;-64
2022/07/24 01:57:27;;;;;;;65.40;62.20;;;;;;;28.31;34.10;101746.34;4883216;29;20111;-64
2022/07/24 01:59:53;;;;;;;65.18;61.90;;;;;;;28.28;34.32;101742.28;4890978;29;20044;-64
2022/07/24 02:02:18;;;;;;;68.43;64.93;;;;;;;28.26;33.93;101744.59;4877381;29;20491;-63
2022/07/24 02:04:43;;;;;;;65.00;61.80;;;;;;;28.23;34.00;101739.72;4877805;29;20836;-64
2022/07/24 02:07:09;;;;;;;63.90;60.60;;;;;;;28.20;33.76;101734.84;4877286;29;20048;-64
2022/07/24 02:09:34;;;;;;;66.07;62.70;;;;;;;28.18;33.92;101735.19;4887044;29;20033;-63
2022/07/24 02:11:59;;;;;;;64.72;61.42;;;;;;;28.16;33.90;101737.47;4886912;29;20553;-63
2022/07/24 02:14:25;;;;;;;64.80;61.53;;;;;;;28.13;34.04;101740.94;4883722;29;20036;-63
2022/07/24 02:16:50;;;;;;;62.53;59.22;;;;;;;28.11;33.91;101742.44;4894643;29;20044;-63
2022/07/24 02:19:15;;;;;;;62.35;59.20;;;;;;;28.10;34.17;101746.34;4894945;29;20405;-64
2022/07/24 02:21:41;;;;;;;66.25;62.88;;;;;;;28.06;34.29;101737.88;4890939;29;20146;-63
2022/07/24 02:24:06;;;;;;;66.28;62.78;;;;;;;28.04;34.03;101737.41;4887661;29;20060;-63
2022/07/24 02:26:32;;;;;;;64.75;61.30;;;;;;;28.00;34.00;101742.81;4877053;29;20989;-63
2022/07/24 02:28:57;;;;;;;64.63;61.35;;;;;;;27.98;33.94;101735.97;4882045;29;20103;-63
2022/07/24 02:31:23;;;;;;;64.10;60.75;;;;;;;27.96;34.04;101744.63;4885027;29;20045;-63
2022/07/24 02:33:48;;;;;;;65.47;61.97;;;;;;;27.94;34.50;101737.78;4877418;29;20044;-63
2022/07/24 02:36:14;;;;;;;66.43;63.05;;;;;;;27.91;34.37;101744.84;4877297;29;20044;-67
2022/07/24 02:38:39;;;;;;;63.58;59.92;;;;;;;27.89;34.11;101744.34;4877087;29;20095;-66
2022/07/24 02:41:05;;;;;;;62.92;59.63;;;;;;;27.88;34.42;101741.94;4893729;29;20461;-64
2022/07/24 02:43:30;;;;;;;65.53;62.08;;;;;;;27.86;34.28;101741.44;4885138;29;20072;-64
2022/07/24 02:45:56;;;;;;;65.25;61.60;;;;;;;27.82;34.45;101744.06;4880501;29;20037;-64
2022/07/24 02:48:21;;;;;;;64.28;60.83;;;;;;;27.79;34.33;101744.72;4877100;29;20041;-63
2022/07/24 02:50:47;;;;;;;70.85;67.25;;;;;;;27.77;34.11;101741.44;4885650;29;20478;-62
2022/07/24 02:53:12;;;;;;;62.40;59.25;;;;;;;27.74;34.48;101745.72;4877465;29;20038;-63
2022/07/24 02:55:38;;;;;;;66.43;62.92;;;;;;;27.73;34.46;101746.06;4878209;29;20068;-63
2022/07/24 02:58:03;;;;;;;66.10;62.55;;;;;;;27.70;34.54;101746.75;4882640;29;20060;-63
2022/07/24 03:00:29;;;;;;;65.68;62.17;;;;;;;27.69;34.31;101736.78;4894472;29;20052;-63
2022/07/24 03:02:54;;;;;;;66.72;63.22;;;;;;;27.65;34.54;101735.84;4897902;29;20460;-63
2022/07/24 03:05:20;;;;;;;65.75;62.38;;;;;;;27.62;34.57;101738.13;4897311;29;20068;-63
2022/07/24 03:07:46;;;;;;;65.90;62.40;;;;;;;27.60;34.70;101742.38;4898927;29;20057;-63
2022/07/24 03:10:13;;;;;;;63.35;60.00;;;;;;;27.57;34.81;101735.53;4888710;29;20041;-63
2022/07/24 03:12:40;;;;;;;62.92;59.58;;;;;;;27.55;34.82;101734.25;4890889;29;20041;-63
2022/07/24 03:15:06;;;;;;;60.90;57.60;;;;;;;27.52;34.39;101738.50;4882835;29;20037;-63
2022/07/24 03:17:31;;;;;;;61.65;58.30;;;;;;;27.51;34.72;101733.28;4897310;29;20029;-63
2022/07/24 03:19:57;;;;;;;62.78;59.28;;;;;;;27.49;34.86;101735.56;4890240;29;20123;-64
2022/07/24 03:22:22;;;;;;;65.20;61.72;;;;;;;27.45;34.53;101724.34;4888477;29;20116;-63
2022/07/24 03:24:48;;;;;;;62.28;58.83;;;;;;;27.44;34.75;101721.88;4881702;29;20473;-63
2022/07/24 03:27:13;;;;;;;64.40;61.00;;;;;;;27.41;34.56;101732.50;4879715;29;20382;-64
2022/07/24 03:29:38;;;;;;;62.17;58.88;;;;;;;27.39;34.83;101723.72;4895865;29;20131;-63
2022/07/24 03:32:04;;;;;;;60.53;57.20;;;;;;;27.37;34.63;101727.97;4896833;29;20501;-63
2022/07/24 03:34:30;;;;;;;63.03;59.72;;;;;;;27.35;34.64;101727.50;4896770;29;20036;-64
2022/07/24 03:36:55;;;;;;;63.33;59.97;;;;;;;27.32;34.71;101722.63;4899330;29;20044;-63
2022/07/24 03:39:21;;;;;;;64.10;60.60;;;;;;;27.29;34.77;101715.78;4895990;29;20067;-68
2022/07/24 03:41:46;;;;;;;63.50;59.92;;;;;;;27.28;34.46;101713.31;4881849;29;20544;-64
2022/07/24 03:44:12;;;;;;;63.00;59.35;;;;;;;27.26;34.96;101707.28;4895040;29;20097;-64
2022/07/24 03:46:37;;;;;;;59.05;55.65;;;;;;;27.22;35.21;101709.91;4879591;29;20045;-63
2022/07/24 03:49:03;;;;;;;61.22;57.72;;;;;;;27.20;34.70;101709.44;4896976;29;20127;-64
2022/07/24 03:51:28;;;;;;;59.92;56.50;;;;;;;27.18;34.94;101700.63;4880127;29;20397;-63
2022/07/24 03:53:54;;;;;;;59.63;56.33;;;;;;;27.16;35.00;101703.69;4885817;29;20045;-64
2022/07/24 03:56:19;;;;;;;58.58;55.28;;;;;;;27.13;35.12;101701.59;4879727;29;20029;-64
2022/07/24 03:58:45;;;;;;;63.05;59.63;;;;;;;27.11;35.12;101705.84;4886158;29;20127;-63
2022/07/24 04:01:10;;;;;;;59.20;56.00;;;;;;;27.09;34.92;101697.88;4879898;29;20041;-63
2022/07/24 04:03:36;;;;;;;63.92;60.38;;;;;;;27.06;35.35;101706.84;4878766;29;20482;-63
2022/07/24 04:06:03;;;;;;;59.20;56.00;;;;;;;27.04;35.27;101698.06;4884565;29;20041;-63
2022/07/24 04:08:29;;;;;;;58.90;55.53;;;;;;;27.02;34.97;101703.13;4888174;29;20405;-63
2022/07/24 04:10:56;;;;;;;60.20;56.95;;;;;;;27.00;34.91;101710.94;4897648;29;20029;-66
2022/07/24 04:13:27;;;;;;;58.47;55.38;;;;;;;26.98;34.88;101708.50;4889850;29;20045;-63
2022/07/24 04:15:54;;;;;;;60.03;56.53;;;;;;;26.95;35.13;101709.16;4885499;29;20047;-63
2022/07/24 04:18:20;;;;;;;59.03;55.65;;;;;;;26.92;35.25;101712.59;4882978;29;20044;-63
2022/07/24 04:20:45;;;;;;;58.78;55.63;;;;;;;26.91;35.29;101715.69;4896391;29;20037;-63
2022/07/24 04:23:10;;;;;;;60.15;56.95;;;;;;;26.89;34.93;101718.81;4896677;29;20037;-63
2022/07/24 04:25:36;;;;;;;64.28;60.72;;;;;;;26.87;35.31;101721.09;4896443;29;20465;-63
2022/07/24 04:28:02;;;;;;;59.38;55.97;;;;;;;26.85;35.52;101726.16;4897072;29;20347;-63
2022/07/24 04:30:28;;;;;;;59.78;56.20;;;;;;;26.83;35.46;101719.31;4885244;29;20059;-63
2022/07/24 04:32:53;;;;;;;60.15;56.78;;;;;;;26.80;35.48;101714.44;4879020;29;20397;-64
2022/07/24 04:35:19;;;;;;;57.47;54.28;;;;;;;26.78;35.51;101717.50;4879077;29;20469;-63
2022/07/24 04:37:45;;;;;;;61.20;57.53;;;;;;;26.77;35.66;101721.44;4895606;29;20465;-62
2022/07/24 04:40:11;;;;;;;60.60;57.00;;;;;;;26.72;35.36;101719.66;4895649;29;20449;-63
2022/07/24 04:42:37;;;;;;;58.67;55.33;;;;;;;26.72;35.65;101718.84;4895983;29;20043;-62
2022/07/24 04:45:03;;;;;;;60.38;56.88;;;;;;;26.69;35.71;101723.09;4888634;29;20033;-63
2022/07/24 04:47:28;;;;;;;58.45;55.00;;;;;;;26.67;35.33;101722.59;4890447;29;20396;-66
2022/07/24 04:49:53;;;;;;;61.10;57.50;;;;;;;26.66;35.73;101728.47;4886900;29;20037;-63
2022/07/24 04:52:19;;;;;;;60.58;56.78;;;;;;;26.64;35.31;101722.44;4878635;29;20092;-62
2022/07/24 04:54:44;;;;;;;57.88;54.47;;;;;;;26.62;35.52;101725.53;4895343;29;20508;-63
2022/07/24 04:57:10;;;;;;;60.00;56.40;;;;;;;26.60;35.32;101713.97;4896421;29;20065;-63
2022/07/24 04:59:35;;;;;;;59.30;55.88;;;;;;;26.59;35.73;101712.34;4895124;29;20504;-63
2022/07/24 05:02:01;;;;;;;58.30;54.90;;;;;;;26.57;35.72;101709.09;4897054;29;20067;-63
2022/07/24 05:04:26;;;;;;;61.25;57.67;;;;;;;26.55;35.72;101711.38;4883354;29;20124;-63
2022/07/24 05:06:52;;;;;;;59.38;56.05;;;;;;;26.53;35.34;101711.72;4878261;29;20124;-63
2022/07/24 05:09:17;;;;;;;60.00;56.42;;;;;;;26.52;35.35;101709.22;4882243;29;20131;-63
2022/07/24 05:11:42;;;;;;;57.90;54.58;;;;;;;26.51;35.89;101718.66;4885262;29;20047;-63
2022/07/24 05:14:08;;;;;;;58.40;54.88;;;;;;;26.49;35.69;101727.31;4878491;29;20441;-65
2022/07/24 05:16:33;;;;;;;62.10;58.35;;;;;;;26.48;35.83;101722.91;4877792;29;20037;-63
2022/07/24 05:18:59;;;;;;;58.58;55.08;;;;;;;26.46;35.80;101724.38;4887374;29;20032;-63
2022/07/24 05:21:24;;;;;;;60.42;56.80;;;;;;;26.45;36.00;101725.53;4882034;29;20043;-63
2022/07/24 05:23:49;;;;;;;61.28;57.60;;;;;;;26.44;35.81;101723.91;4890978;29;20647;-63
2022/07/24 05:26:15;;;;;;;58.13;54.83;;;;;;;26.42;35.48;101718.69;4885576;29;20112;-63
2022/07/24 05:28:40;;;;;;;58.70;55.15;;;;;;;26.41;35.79;101719.00;4893649;29;20066;-63
2022/07/24 05:31:07;;;;;;;56.75;53.35;;;;;;;26.40;35.95;101720.97;4878003;29;20048;-64
2022/07/24 05:33:32;;;;;;;59.80;56.17;;;;;;;26.39;36.09;101724.88;4883470;29;20071;-67
2022/07/24 05:35:58;;;;;;;57.90;54.30;;;;;;;26.38;35.58;101726.00;4877851;29;20064;-64
2022/07/24 05:38:23;;;;;;;57.47;54.20;;;;;;;26.36;36.07;101731.09;4884431;29;20433;-64
2022/07/24 05:40:48;;;;;;;59.10;55.58;;;;;;;26.36;35.92;101733.84;4889102;29;20072;-64
2022/07/24 05:43:16;;;;;;;60.80;57.00;;;;;;;26.35;35.71;101734.97;4884723;29;20129;-65
2022/07/24 05:45:41;;;;;;;57.55;54.20;;;;;;;26.37;35.60;101735.47;4877342;29;20044;-64
2022/07/24 05:48:07;;;;;;;56.53;53.10;;;;;;;26.36;36.17;101733.84;4879012;29;20041;-64
2022/07/24 05:50:32;;;;;;;57.65;54.15;;;;;;;26.36;36.09;101733.00;4893821;29;20036;-62
2022/07/24 05:52:57;;;;;;;56.60;53.20;;;;;;;26.36;35.85;101733.84;4895044;29;20473;-62
2022/07/24 05:55:23;;;;;;;58.80;55.38;;;;;;;26.34;36.33;101745.25;4886566;29;20040;-64
2022/07/24 05:57:48;;;;;;;58.95;55.65;;;;;;;26.36;35.80;101746.88;4877871;29;20037;-66
2022/07/24 06:00:15;;;;;;;57.55;54.05;;;;;;;26.35;36.20;101743.28;4889474;29;20112;-63
2022/07/24 06:02:40;;;;;;;61.75;58.05;;;;;;;26.36;35.79;101738.56;4883556;29;20390;-63
2022/07/24 06:05:06;;;;;;;57.20;53.90;;;;;;;26.35;36.25;101743.28;4877886;29;20080;-63
2022/07/24 06:07:31;;;;;;;57.42;54.10;;;;;;;26.34;36.18;101749.97;4877995;29;20120;-63
2022/07/24 06:09:57;;;;;;;56.67;53.25;;;;;;;26.35;36.02;101751.59;4884530;29;22162;-63
2022/07/24 06:12:22;;;;;;;59.47;56.17;;;;;;;26.34;36.52;101739.69;4885763;29;20037;-63
2022/07/24 06:14:48;;;;;;;59.10;55.65;;;;;;;26.34;36.38;101742.47;4891230;29;20127;-63
2022/07/24 06:17:14;;;;;;;57.03;53.70;;;;;;;26.34;36.22;101753.56;4877671;29;20116;-62
2022/07/24 06:19:39;;;;;;;57.17;53.97;;;;;;;26.36;36.63;101750.47;4877194;29;20181;-63
2022/07/24 06:22:04;;;;;;;60.17;56.97;;;;;;;26.36;36.31;101746.88;4892543;29;20041;-63
2022/07/24 06:24:30;;;;;;;55.78;52.65;;;;;;;26.37;36.77;101748.50;4894287;29;20044;-62
2022/07/24 06:26:55;;;;;;;57.15;53.75;;;;;;;26.38;36.18;101747.34;4884614;29;20037;-63
2022/07/24 06:29:20;;;;;;;57.10;53.83;;;;;;;26.38;36.66;101742.63;4877110;29;20040;-64
2022/07/24 06:31:46;;;;;;;60.30;57.00;;;;;;;26.39;36.92;101735.16;4888869;29;20519;-63
2022/07/24 06:34:11;;;;;;;57.05;53.83;;;;;;;26.40;36.33;101740.34;4887348;29;20041;-63
2022/07/24 06:36:37;;;;;;;57.65;54.17;;;;;;;26.43;36.40;101745.22;4880800;29;20131;-63
2022/07/24 06:39:02;;;;;;;55.65;52.40;;;;;;;26.45;36.91;101744.91;4880411;29;20060;-63
2022/07/24 06:41:27;;;;;;;60.83;57.53;;;;;;;26.46;36.69;101735.44;4894946;29;20131;-63
2022/07/24 06:43:53;;;;;;;58.75;55.65;;;;;;;26.49;36.62;101743.94;4888903;29;20041;-63
2022/07/24 06:46:19;;;;;;;58.30;55.10;;;;;;;26.50;36.58;101734.47;4880618;29;20068;-63
2022/07/24 06:48:44;;;;;;;58.30;55.00;;;;;;;26.53;36.69;101738.56;4880353;29;20508;-63
2022/07/24 06:51:09;;;;;;;56.17;53.00;;;;;;;26.57;36.79;101745.09;4885039;29;20045;-64
2022/07/24 06:53:36;;;;;;;58.45;55.00;;;;;;;26.57;36.65;101739.56;4894028;29;20045;-64
2022/07/24 06:56:02;;;;;;;58.28;55.13;;;;;;;26.59;36.89;101740.06;4883158;29;20172;-63
2022/07/24 06:58:27;;;;;;;57.03;53.88;;;;;;;26.61;37.21;101739.72;4881125;29;20459;-63
2022/07/24 07:00:52;;;;;;;61.47;57.88;;;;;;;26.61;37.25;101737.78;4882374;29;20045;-63
2022/07/24 07:03:18;;;;;;;57.25;53.85;;;;;;;26.65;37.28;101740.69;4887341;29;20040;-64
2022/07/24 07:05:44;;;;;;;57.15;53.97;;;;;;;26.66;37.23;101743.16;4883125;29;20495;-64
2022/07/24 07:08:09;;;;;;;57.97;54.67;;;;;;;26.69;37.14;101742.50;4880353;29;20469;-63
2022/07/24 07:10:35;;;;;;;56.10;53.05;;;;;;;26.72;36.96;101739.06;4897163;29;20508;-63
2022/07/24 07:13:00;;;;;;;57.83;54.72;;;;;;;26.77;37.12;101740.84;4898383;29;20139;-64
2022/07/24 07:15:26;;;;;;;58.47;55.38;;;;;;;26.80;37.53;101748.50;4896178;29;20045;-63
2022/07/24 07:17:51;;;;;;;58.88;55.88;;;;;;;26.83;37.06;101747.03;4889572;29;20117;-64
2022/07/24 07:20:17;;;;;;;57.30;54.30;;;;;;;26.85;37.07;101740.00;4880540;29;20090;-63
2022/07/24 07:22:42;;;;;;;57.33;54.38;;;;;;;26.88;37.09;101742.13;4880022;29;20037;-67
2022/07/24 07:25:09;;;;;;;56.00;53.00;;;;;;;26.91;37.16;101741.47;4891326;29;20080;-63
2022/07/24 07:27:35;;;;;;;59.83;56.75;;;;;;;26.93;37.16;101746.69;4888749;29;20048;-63
2022/07/24 07:30:01;;;;;;;56.70;53.63;;;;;;;26.96;37.19;101743.22;4879447;29;20401;-63
2022/07/24 07:32:27;;;;;;;56.35;53.35;;;;;;;27.00;37.25;101752.53;4879948;29;20033;-65
2022/07/24 07:34:52;;;;;;;60.88;57.80;;;;;;;27.03;37.75;101751.88;4887131;29;20044;-64
2022/07/24 07:37:17;;;;;;;58.25;55.35;;;;;;;27.06;37.55;101748.44;4894267;29;20061;-65
2022/07/24 07:39:43;;;;;;;57.85;54.75;;;;;;;27.10;37.51;101745.81;4893475;29;20074;-65
2022/07/24 07:42:08;;;;;;;56.30;53.50;;;;;;;27.14;37.56;101738.44;4880138;29;20036;-63
2022/07/24 07:44:34;;;;;;;60.22;57.03;;;;;;;27.17;37.25;101738.63;4880781;29;20500;-63
2022/07/24 07:46:59;;;;;;;57.15;54.25;;;;;;;27.22;37.60;101729.34;4894706;29;20040;-65
2022/07/24 07:49:24;;;;;;;58.88;55.97;;;;;;;27.26;37.66;101730.28;4880093;29;20045;-63
2022/07/24 07:51:51;;;;;;;57.30;54.35;;;;;;;27.31;37.43;101738.41;4879312;29;20044;-64
2022/07/24 07:54:17;;;;;;;57.33;54.53;;;;;;;27.34;37.39;101726.69;4891115;29;20393;-63
2022/07/24 07:56:43;;;;;;;59.03;56.22;;;;;;;27.39;37.75;101726.50;4892109;29;20476;-63
2022/07/24 07:59:08;;;;;;;57.38;54.47;;;;;;;27.44;37.75;101736.56;4879287;29;20414;-63
2022/07/24 08:01:34;;;;;;;62.15;59.15;;;;;;;27.49;37.44;101743.91;4879757;29;20096;-63
2022/07/24 08:03:59;;;;;;;61.67;58.67;;;;;;;27.53;37.77;101742.91;4884411;29;20040;-63
2022/07/24 08:06:24;;;;;;;64.13;60.92;;;;;;;27.58;37.59;101742.72;4896730;29;20453;-63
2022/07/24 08:08:50;;;;;;;60.83;57.85;;;;;;;27.63;37.91;101745.28;4908075;29;20043;-65
2022/07/24 08:11:15;;;;;;;58.75;55.85;;;;;;;27.69;37.52;101742.31;4879657;29;20059;-64
2022/07/24 08:13:40;;;;;;;61.47;58.47;;;;;;;27.75;37.87;101729.91;4879519;29;20147;-64
2022/07/24 08:16:06;;;;;;;60.58;57.47;;;;;;;27.81;37.72;101736.88;4880822;29;20233;-64
2022/07/24 08:18:32;;;;;;;60.30;57.30;;;;;;;27.87;37.50;101741.13;4896153;29;20044;-65
2022/07/24 08:20:57;;;;;;;63.15;59.97;;;;;;;27.92;37.69;101734.53;4896899;29;20052;-63
2022/07/24 08:23:22;;;;;;;60.65;57.72;;;;;;;27.98;37.95;101736.78;4897975;29;20036;-63
2022/07/24 08:25:48;;;;;;;61.60;58.60;;;;;;;28.03;37.98;101733.00;4895232;29;20088;-67
2022/07/24 08:28:13;;;;;;;62.30;59.28;;;;;;;28.10;37.51;101741.63;4889815;29;20061;-64
2022/07/24 08:30:39;;;;;;;64.50;61.50;;;;;;;28.17;37.84;101749.38;4879418;29;20561;-64
2022/07/24 08:33:04;;;;;;;64.18;60.92;;;;;;;28.24;37.84;101758.00;4882015;29;20028;-63
2022/07/24 08:35:29;;;;;;;66.35;63.10;;;;;;;28.30;37.64;101759.44;4908302;29;20040;-63
2022/07/24 08:37:55;;;;;;;67.47;63.72;;;;;;;28.36;37.65;101746.97;4893443;29;20067;-63
2022/07/24 08:40:22;;;;;;;61.00;58.10;;;;;;;28.43;37.57;101743.63;4895256;29;20139;-63
2022/07/24 08:42:47;;;;;;;62.65;59.65;;;;;;;28.50;37.85;101746.72;4893967;29;20044;-64
2022/07/24 08:45:13;;;;;;;63.25;60.13;;;;;;;28.58;37.53;101742.22;4892669;29;20037;-63
2022/07/24 08:47:40;;;;;;;63.10;60.10;;;;;;;28.65;37.73;101742.47;4879042;29;20044;-63
2022/07/24 08:50:06;;;;;;;65.72;62.53;;;;;;;28.72;37.71;101733.56;4878565;29;20037;-63
2022/07/24 08:52:35;;;;;;;65.32;62.22;;;;;;;28.80;37.54;101730.69;4883054;29;20070;-64
2022/07/24 08:55:01;;;;;;;63.90;60.90;;;;;;;28.89;37.85;101723.09;4878345;29;20043;-63
2022/07/24 08:57:26;;;;;;;63.42;60.42;;;;;;;28.96;37.85;101722.53;4888470;29;20044;-63
2022/07/24 08:59:52;;;;;;;69.18;65.82;;;;;;;29.03;37.49;101711.66;4894345;29;20057;-63
2022/07/24 09:02:18;;;;;;;66.22;63.00;;;;;;;29.11;37.56;101712.75;4889380;29;20096;-64
2022/07/24 09:04:46;;;;;;;66.65;63.55;;;;;;;29.18;37.93;101710.19;4895295;29;20145;-64
2022/07/24 09:07:19;;;;;;;65.20;62.00;;;;;;;29.26;37.57;101703.72;4883933;29;20286;-64
2022/07/24 09:09:58;;;;;;;66.72;63.63;;;;;;;29.34;37.51;101700.00;4878622;29;20064;-65
2022/07/24 09:12:24;;;;;;;68.10;64.60;;;;;;;29.44;37.44;101701.50;4891510;29;20047;-63
2022/07/24 09:14:49;;;;;;;66.40;63.30;;;;;;;29.51;37.53;101700.94;4878991;29;20037;-65
2022/07/24 09:17:24;;;;;;;67.35;64.15;;;;;;;29.59;37.39;101699.19;4877790;29;20060;-63
2022/07/24 09:19:55;;;;;;;70.07;66.85;;;;;;;29.68;37.32;101703.47;4881817;29;20071;-63
2022/07/24 09:22:34;;;;;;;67.03;63.88;;;;;;;29.76;37.47;101701.72;4878395;29;20037;-62
2022/07/24 09:25:16;;;;;;;69.63;66.32;;;;;;;29.86;37.13;101697.63;4877614;29;20037;-63
2022/07/24 09:27:59;;;;;;;69.35;66.05;;;;;;;29.94;37.37;101699.50;4895403;29;20040;-63
2022/07/24 09:30:31;;;;;;;71.45;68.15;;;;;;;30.02;37.24;101695.75;4882602;29;20550;-63
2022/07/24 09:33:15;;;;;;;73.95;70.55;;;;;;;30.11;37.12;101699.19;4877527;29;20033;-64
2022/07/24 09:35:43;;;;;;;73.15;69.68;;;;;;;30.20;37.38;101697.06;4877712;29;20120;-63
2022/07/24 09:38:10;;;;;;;71.70;68.22;;;;;;;30.29;37.22;101696.97;4877482;29;20522;-63
2022/07/24 09:40:38;;;;;;;73.65;70.25;;;;;;;30.38;36.81;101688.44;4883155;29;20454;-64
2022/07/24 09:43:24;;;;;;;71.88;68.47;;;;;;;30.48;36.79;101687.13;4876065;29;20045;-63
2022/07/24 09:46:03;;;;;;;74.57;71.18;;;;;;;30.54;36.92;101678.16;4889430;29;20033;-64
2022/07/24 09:48:31;;;;;;;73.55;70.15;;;;;;;30.62;36.54;101677.19;4880413;29;20043;-63
2022/07/24 09:51:04;;;;;;;73.18;69.80;;;;;;;30.70;36.74;101683.75;4892778;29;20036;-67
2022/07/24 09:53:31;;;;;;;74.50;71.05;;;;;;;30.79;36.43;101678.81;4895298;29;20050;-64
2022/07/24 09:56:09;;;;;;;75.70;72.20;;;;;;;30.89;36.63;101685.84;4886640;29;20036;-67
2022/07/24 09:58:55;;;;;;;76.40;72.90;;;;;;;30.96;36.54;101674.88;4887235;29;20338;-64
2022/07/24 10:01:25;;;;;;;76.53;73.00;;;;;;;31.05;36.43;101675.53;4889961;29;20029;-65
2022/07/24 10:03:52;;;;;;;78.53;74.93;;;;;;;31.12;36.74;101672.09;4878034;29;20103;-64
2022/07/24 10:06:21;;;;;;;75.45;71.85;;;;;;;31.22;36.41;101670.72;4876359;29;20064;-64
2022/07/24 10:08:49;;;;;;;75.90;72.45;;;;;;;31.30;36.45;101671.69;4887640;29;20478;-64
2022/07/24 10:11:15;;;;;;;77.03;73.53;;;;;;;31.39;36.34;101669.56;4886613;29;20040;-64
2022/07/24 10:13:42;;;;;;;79.40;75.80;;;;;;;31.46;35.97;101670.53;4877833;29;20044;-64
2022/07/24 10:16:13;;;;;;;78.88;75.28;;;;;;;31.55;36.32;101661.16;4895828;29;20028;-64
2022/07/24 10:18:50;;;;;;;75.95;72.45;;;;;;;31.63;36.29;101663.75;4878208;29;20177;-64
2022/07/24 10:21:21;;;;;;;79.28;75.63;;;;;;;31.74;36.05;101660.38;4892837;29;20385;-65
2022/07/24 10:24:07;;;;;;;78.55;74.95;;;;;;;31.81;35.90;101658.56;4885748;29;20044;-64
2022/07/24 10:26:48;;;;;;;80.45;76.75;;;;;;;31.89;35.77;101651.13;4876967;29;20036;-64
2022/07/24 10:29:24;;;;;;;84.40;80.60;;;;;;;31.98;35.71;101656.53;4886864;29;20032;-64
2022/07/24 10:31:54;;;;;;;81.05;77.25;;;;;;;32.06;35.62;101655.50;4894307;29;20041;-64
2022/07/24 10:34:42;;;;;;;82.35;78.63;;;;;;;32.15;35.68;101650.50;4885809;29;20470;-64
2022/07/24 10:37:26;;;;;;;80.90;77.07;;;;;;;32.25;35.54;101657.47;4876846;29;20438;-64
2022/07/24 10:39:54;;;;;;;82.43;78.72;;;;;;;32.30;35.18;101657.97;4885039;29;20045;-64
2022/07/24 10:42:19;;;;;;;85.95;82.05;;;;;;;32.40;35.22;101652.97;4876989;29;20033;-64
2022/07/24 10:45:04;;;;;;;86.43;82.13;;;;;;;32.47;35.29;101651.09;4891434;29;20520;-64
2022/07/24 10:47:32;;;;;;;82.13;78.43;;;;;;;32.56;35.26;101648.13;4877084;29;20037;-64
2022/07/24 10:49:57;;;;;;;84.30;80.57;;;;;;;32.64;35.11;101649.88;4886081;29;20653;-64
2022/07/24 10:52:26;;;;;;;85.20;81.30;;;;;;;32.72;35.03;101642.41;4903167;29;20124;-64
2022/07/24 10:55:22;;;;;;;83.15;79.40;;;;;;;32.80;34.77;101643.34;4877373;29;20467;-64
2022/07/24 10:57:59;;;;;;;83.35;79.57;;;;;;;32.86;34.85;101645.44;4876931;29;20481;-64
2022/07/24 11:00:35;;;;;;;86.10;82.22;;;;;;;32.93;34.67;101639.16;4877368;29;20144;-64
2022/07/24 11:03:02;;;;;;;85.22;81.38;;;;;;;33.02;34.68;101638.91;4876939;29;20043;-64
2022/07/24 11:05:36;;;;;;;84.63;80.78;;;;;;;33.09;34.60;101639.84;4885863;29;20058;-64
2022/07/24 11:08:33;;;;;;;86.50;82.60;;;;;;;33.18;34.52;101629.19;4892060;29;20040;-65